sensor_id;sensor_type;location;lat;lon;timestamp;pressure;altitude;pressure_sealevel;temperature;humidity
14885;BME280;7534;50.762;7.000;2022-12-10T00:01:11;146198.34;;;-0.11;100.00
14885;BME280;7534;50.762;7.000;2022-12-10T00:03:37;146172.41;;;-0.21;100.00
14885;BME280;7534;50.762;7.000;2022-12-10T00:06:06;146156.88;;;-0.27;100.00
14885;BME280;7534;50.762;7.000;2022-12-10T00:08:33;146156.88;;;-0.27;100.00
14885;BME280;7534;50.762;7.000;2022-12-10T00:10:59;146128.38;;;-0.39;100.00
14885;BME280;7534;50.762;7.000;2022-12-10T00:13:24;146128.38;;;-0.39;100.00
14885;BME280;7534;50.762;7.000;2022-12-10T00:15:50;146119.31;;;-0.42;100.00
14885;BME280;7534;50.762;7.000;2022-12-10T00:18:16;146133.56;;;-0.36;100.00
14885;BME280;7534;50.762;7.000;2022-12-10T00:20:41;146138.75;;;-0.34;100.00
14885;BME280;7534;50.762;7.000;2022-12-10T00:23:08;146149.09;;;-0.30;100.00
14885;BME280;7534;50.762;7.000;2022-12-10T00:25:34;146151.69;;;-0.29;100.00
14885;BME280;7534;50.762;7.000;2022-12-10T00:28:00;146164.69;;;-0.24;100.00
14885;BME280;7534;50.762;7.000;2022-12-10T00:30:26;146172.41;;;-0.21;100.00
14885;BME280;7534;50.762;7.000;2022-12-10T00:32:52;146213.88;;;-0.05;100.00
14885;BME280;7534;50.762;7.000;2022-12-10T00:35:18;146221.66;;;-0.02;100.00
14885;BME280;7534;50.762;7.000;2022-12-10T00:37:43;146245.00;;;0.07;100.00
14885;BME280;7534;50.762;7.000;2022-12-10T00:40:09;146260.53;;;0.13;100.00
14885;BME280;7534;50.762;7.000;2022-12-10T00:42:38;146274.78;;;0.19;100.00
14885;BME280;7534;50.762;7.000;2022-12-10T00:45:04;146237.22;;;0.04;100.00
14885;BME280;7534;50.762;7.000;2022-12-10T00:47:30;146256.66;;;0.12;100.00
14885;BME280;7534;50.762;7.000;2022-12-10T00:49:57;146277.38;;;0.20;100.00
14885;BME280;7534;50.762;7.000;2022-12-10T00:52:24;146260.53;;;0.13;100.00
14885;BME280;7534;50.762;7.000;2022-12-10T00:54:50;146283.88;;;0.22;100.00
14885;BME280;7534;50.762;7.000;2022-12-10T00:57:16;146281.28;;;0.21;100.00
14885;BME280;7534;50.762;7.000;2022-12-10T00:59:42;146282.59;;;0.22;100.00
14885;BME280;7534;50.762;7.000;2022-12-10T01:02:09;146287.78;;;0.24;100.00
14885;BME280;7534;50.762;7.000;2022-12-10T01:04:35;146243.72;;;0.07;100.00
14885;BME280;7534;50.762;7.000;2022-12-10T01:07:04;146222.97;;;-0.02;100.00
14885;BME280;7534;50.762;7.000;2022-12-10T01:09:30;146248.84;;;0.09;100.00
14885;BME280;7534;50.762;7.000;2022-12-10T01:12:01;146248.84;;;0.09;100.00
14885;BME280;7534;50.762;7.000;2022-12-10T01:14:31;146261.84;;;0.14;100.00
14885;BME280;7534;50.762;7.000;2022-12-10T01:17:03;146255.34;;;0.11;100.00
14885;BME280;7534;50.762;7.000;2022-12-10T01:19:32;146252.75;;;0.10;100.00
14885;BME280;7534;50.762;7.000;2022-12-10T01:21:58;146226.88;;;0.00;100.00
14885;BME280;7534;50.762;7.000;2022-12-10T01:24:27;146173.72;;;-0.21;100.00
14885;BME280;7534;50.762;7.000;2022-12-10T01:26:53;146115.44;;;-0.44;100.00
14885;BME280;7534;50.762;7.000;2022-12-10T01:29:22;146076.59;;;-0.59;100.00
14885;BME280;7534;50.762;7.000;2022-12-10T01:31:52;146105.03;;;-0.48;100.00
14885;BME280;7534;50.762;7.000;2022-12-10T01:34:19;146147.78;;;-0.31;100.00
14885;BME280;7534;50.762;7.000;2022-12-10T01:36:49;146141.34;;;-0.33;100.00
14885;BME280;7534;50.762;7.000;2022-12-10T01:39:17;146159.47;;;-0.26;100.00
14885;BME280;7534;50.762;7.000;2022-12-10T01:41:51;146137.47;;;-0.35;100.00
14885;BME280;7534;50.762;7.000;2022-12-10T01:46:50;146151.69;;;-0.29;100.00
14885;BME280;7534;50.762;7.000;2022-12-10T01:49:24;146155.59;;;-0.28;100.00
14885;BME280;7534;50.762;7.000;2022-12-10T01:51:54;146150.38;;;-0.30;100.00
14885;BME280;7534;50.762;7.000;2022-12-10T01:54:28;146158.19;;;-0.27;100.00
14885;BME280;7534;50.762;7.000;2022-12-10T01:57:08;146123.22;;;-0.41;100.00
14885;BME280;7534;50.762;7.000;2022-12-10T01:59:37;146159.47;;;-0.26;100.00
14885;BME280;7534;50.762;7.000;2022-12-10T02:02:36;146162.06;;;-0.25;100.00
14885;BME280;7534;50.762;7.000;2022-12-10T02:05:23;146181.50;;;-0.18;100.00
14885;BME280;7534;50.762;7.000;2022-12-10T02:08:36;146178.91;;;-0.19;100.00
14885;BME280;7534;50.762;7.000;2022-12-10T02:11:22;146215.19;;;-0.05;100.00
14885;BME280;7534;50.762;7.000;2022-12-10T02:14:32;146232.03;;;0.02;100.00
14885;BME280;7534;50.762;7.000;2022-12-10T02:17:19;146257.94;;;0.12;100.00
14885;BME280;7534;50.762;7.000;2022-12-10T02:20:13;146276.09;;;0.19;100.00
14885;BME280;7534;50.762;7.000;2022-12-10T02:22:49;146298.13;;;0.28;100.00
14885;BME280;7534;50.762;7.000;2022-12-10T02:25:20;146278.69;;;0.20;100.00
14885;BME280;7534;50.762;7.000;2022-12-10T02:27:58;146325.34;;;0.38;100.00
14885;BME280;7534;50.762;7.000;2022-12-10T02:30:29;146320.16;;;0.36;100.00
14885;BME280;7534;50.762;7.000;2022-12-10T02:32:58;146343.50;;;0.46;100.00
14885;BME280;7534;50.762;7.000;2022-12-10T02:35:29;146348.69;;;0.48;100.00
14885;BME280;7534;50.762;7.000;2022-12-10T02:38:05;146372.03;;;0.57;100.00
14885;BME280;7534;50.762;7.000;2022-12-10T02:40:35;146369.44;;;0.56;100.00
14885;BME280;7534;50.762;7.000;2022-12-10T02:43:02;146366.84;;;0.55;100.00
14885;BME280;7534;50.762;7.000;2022-12-10T02:45:30;146351.31;;;0.49;100.00
14885;BME280;7534;50.762;7.000;2022-12-10T02:47:59;146377.19;;;0.59;100.00
14885;BME280;7534;50.762;7.000;2022-12-10T02:50:26;146366.84;;;0.55;100.00
14885;BME280;7534;50.762;7.000;2022-12-10T02:52:53;146370.75;;;0.56;100.00
14885;BME280;7534;50.762;7.000;2022-12-10T02:55:19;146408.34;;;0.71;100.00
14885;BME280;7534;50.762;7.000;2022-12-10T02:58:13;146421.28;;;0.76;100.00
14885;BME280;7534;50.762;7.000;2022-12-10T03:00:58;146399.25;;;0.67;100.00
14885;BME280;7534;50.762;7.000;2022-12-10T03:04:01;146422.59;;;0.76;100.00
14885;BME280;7534;50.762;7.000;2022-12-10T03:06:42;146425.19;;;0.77;100.00
14885;BME280;7534;50.762;7.000;2022-12-10T03:09:23;146436.84;;;0.82;100.00
14885;BME280;7534;50.762;7.000;2022-12-10T03:12:02;146426.50;;;0.78;100.00
14885;BME280;7534;50.762;7.000;2022-12-10T03:14:33;146451.13;;;0.88;100.00
14885;BME280;7534;50.762;7.000;2022-12-10T03:17:03;146444.63;;;0.85;100.00
14885;BME280;7534;50.762;7.000;2022-12-10T03:19:45;146442.03;;;0.84;100.00
14885;BME280;7534;50.762;7.000;2022-12-10T03:22:16;146403.13;;;0.69;100.00
14885;BME280;7534;50.762;7.000;2022-12-10T03:24:43;146395.34;;;0.66;100.00
14885;BME280;7534;50.762;7.000;2022-12-10T03:27:12;146416.09;;;0.74;100.00
14885;BME280;7534;50.762;7.000;2022-12-10T03:29:45;146399.25;;;0.67;100.00
14885;BME280;7534;50.762;7.000;2022-12-10T03:32:14;146403.13;;;0.69;100.00
14885;BME280;7534;50.762;7.000;2022-12-10T03:34:43;146385.00;;;0.62;100.00
14885;BME280;7534;50.762;7.000;2022-12-10T03:37:11;146423.88;;;0.77;100.00
14885;BME280;7534;50.762;7.000;2022-12-10T03:39:38;146410.94;;;0.72;100.00
14885;BME280;7534;50.762;7.000;2022-12-10T03:42:05;146426.50;;;0.78;100.00
14885;BME280;7534;50.762;7.000;2022-12-10T03:44:35;146457.59;;;0.90;100.00
14885;BME280;7534;50.762;7.000;2022-12-10T03:47:02;146470.59;;;0.95;100.00
14885;BME280;7534;50.762;7.000;2022-12-10T03:49:29;146447.25;;;0.86;100.00
14885;BME280;7534;50.762;7.000;2022-12-10T03:51:55;146462.78;;;0.92;100.00
14885;BME280;7534;50.762;7.000;2022-12-10T03:54:21;146449.84;;;0.87;100.00
14885;BME280;7534;50.762;7.000;2022-12-10T03:56:48;146440.75;;;0.84;100.00
14885;BME280;7534;50.762;7.000;2022-12-10T03:59:14;146438.13;;;0.83;100.00
14885;BME280;7534;50.762;7.000;2022-12-10T04:01:40;146471.91;;;0.96;100.00
14885;BME280;7534;50.762;7.000;2022-12-10T04:04:07;146461.50;;;0.92;100.00
14885;BME280;7534;50.762;7.000;2022-12-10T04:06:33;146488.75;;;1.02;100.00
14885;BME280;7534;50.762;7.000;2022-12-10T04:08:59;146460.19;;;0.91;100.00
14885;BME280;7534;50.762;7.000;2022-12-10T04:11:25;146470.59;;;0.95;100.00
14885;BME280;7534;50.762;7.000;2022-12-10T04:13:52;146500.41;;;1.07;100.00
14885;BME280;7534;50.762;7.000;2022-12-10T04:16:38;146516.00;;;1.13;100.00
14885;BME280;7534;50.762;7.000;2022-12-10T04:19:13;146506.91;;;1.09;100.00
14885;BME280;7534;50.762;7.000;2022-12-10T04:21:41;146500.41;;;1.07;100.00
14885;BME280;7534;50.762;7.000;2022-12-10T04:24:30;146530.25;;;1.19;100.00
14885;BME280;7534;50.762;7.000;2022-12-10T04:27:30;146531.56;;;1.19;100.00
14885;BME280;7534;50.762;7.000;2022-12-10T04:30:00;146493.94;;;1.04;100.00
14885;BME280;7534;50.762;7.000;2022-12-10T04:32:44;146506.91;;;1.09;100.00
14885;BME280;7534;50.762;7.000;2022-12-10T04:35:10;146496.53;;;1.05;100.00
14885;BME280;7534;50.762;7.000;2022-12-10T04:37:36;146466.69;;;0.94;100.00
14885;BME280;7534;50.762;7.000;2022-12-10T04:40:03;146471.91;;;0.96;100.00
14885;BME280;7534;50.762;7.000;2022-12-10T04:42:30;146464.09;;;0.93;100.00
14885;BME280;7534;50.762;7.000;2022-12-10T04:44:57;146470.59;;;0.95;100.00
14885;BME280;7534;50.762;7.000;2022-12-10T04:47:23;146483.53;;;1.00;100.00
14885;BME280;7534;50.762;7.000;2022-12-10T04:49:49;146480.94;;;0.99;100.00
14885;BME280;7534;50.762;7.000;2022-12-10T04:52:16;146493.94;;;1.04;100.00
14885;BME280;7534;50.762;7.000;2022-12-10T04:54:43;146509.50;;;1.10;100.00
14885;BME280;7534;50.762;7.000;2022-12-10T04:57:09;146495.25;;;1.05;100.00
14885;BME280;7534;50.762;7.000;2022-12-10T04:59:37;146495.25;;;1.05;100.00
14885;BME280;7534;50.762;7.000;2022-12-10T05:02:05;146488.75;;;1.02;100.00
14885;BME280;7534;50.762;7.000;2022-12-10T05:04:31;146478.34;;;0.98;100.00
14885;BME280;7534;50.762;7.000;2022-12-10T05:06:57;146480.94;;;0.99;100.00
14885;BME280;7534;50.762;7.000;2022-12-10T05:09:22;146475.78;;;0.97;100.00
14885;BME280;7534;50.762;7.000;2022-12-10T05:11:48;146483.53;;;1.00;100.00
14885;BME280;7534;50.762;7.000;2022-12-10T05:14:15;146525.06;;;1.17;100.00
14885;BME280;7534;50.762;7.000;2022-12-10T05:16:42;146501.69;;;1.07;100.00
14885;BME280;7534;50.762;7.000;2022-12-10T05:19:09;146495.25;;;1.05;100.00
14885;BME280;7534;50.762;7.000;2022-12-10T05:21:35;146513.41;;;1.12;100.00
14885;BME280;7534;50.762;7.000;2022-12-10T05:24:21;146503.00;;;1.08;100.00
14885;BME280;7534;50.762;7.000;2022-12-10T05:26:47;146514.69;;;1.12;100.00
14885;BME280;7534;50.762;7.000;2022-12-10T05:29:19;146528.97;;;1.18;100.00
14885;BME280;7534;50.762;7.000;2022-12-10T05:31:50;146535.47;;;1.21;100.00
14885;BME280;7534;50.762;7.000;2022-12-10T05:34:15;146544.50;;;1.24;100.00
14885;BME280;7534;50.762;7.000;2022-12-10T05:36:42;146543.22;;;1.24;100.00
14885;BME280;7534;50.762;7.000;2022-12-10T05:39:10;146527.66;;;1.18;100.00
14885;BME280;7534;50.762;7.000;2022-12-10T05:41:39;146521.16;;;1.15;100.00
14885;BME280;7534;50.762;7.000;2022-12-10T05:44:06;146499.09;;;1.06;100.00
14885;BME280;7534;50.762;7.000;2022-12-10T05:46:34;146519.84;;;1.14;100.00
14885;BME280;7534;50.762;7.000;2022-12-10T05:49:03;146527.66;;;1.18;100.00
14885;BME280;7534;50.762;7.000;2022-12-10T05:51:32;146548.41;;;1.26;100.00
14885;BME280;7534;50.762;7.000;2022-12-10T05:54:00;146549.72;;;1.26;100.00
14885;BME280;7534;50.762;7.000;2022-12-10T05:56:27;146558.81;;;1.30;100.00
14885;BME280;7534;50.762;7.000;2022-12-10T05:58:57;146575.69;;;1.36;100.00
14885;BME280;7534;50.762;7.000;2022-12-10T06:01:28;146597.75;;;1.45;100.00
14885;BME280;7534;50.762;7.000;2022-12-10T06:03:59;146608.09;;;1.49;100.00
14885;BME280;7534;50.762;7.000;2022-12-10T06:06:32;146619.81;;;1.53;100.00
14885;BME280;7534;50.762;7.000;2022-12-10T06:08:58;146635.38;;;1.60;100.00
14885;BME280;7534;50.762;7.000;2022-12-10T06:11:26;146584.72;;;1.40;100.00
14885;BME280;7534;50.762;7.000;2022-12-10T06:13:52;146521.16;;;1.15;100.00
14885;BME280;7534;50.762;7.000;2022-12-10T06:16:18;146522.47;;;1.15;100.00
14885;BME280;7534;50.762;7.000;2022-12-10T06:18:43;146566.56;;;1.33;100.00
14885;BME280;7534;50.762;7.000;2022-12-10T06:21:14;146570.47;;;1.34;100.00
14885;BME280;7534;50.762;7.000;2022-12-10T06:23:41;146579.59;;;1.38;100.00
14885;BME280;7534;50.762;7.000;2022-12-10T06:26:21;146539.31;;;1.22;100.00
14885;BME280;7534;50.762;7.000;2022-12-10T06:28:48;146592.53;;;1.43;100.00
14885;BME280;7534;50.762;7.000;2022-12-10T06:31:14;146609.41;;;1.49;100.00
14885;BME280;7534;50.762;7.000;2022-12-10T06:33:41;146601.59;;;1.46;100.00
14885;BME280;7534;50.762;7.000;2022-12-10T06:36:10;146552.31;;;1.27;100.00
14885;BME280;7534;50.762;7.000;2022-12-10T06:38:38;146517.31;;;1.13;100.00
14885;BME280;7534;50.762;7.000;2022-12-10T06:41:07;146501.69;;;1.07;100.00
14885;BME280;7534;50.762;7.000;2022-12-10T06:43:33;146436.84;;;0.82;100.00
14885;BME280;7534;50.762;7.000;2022-12-10T06:46:06;146388.91;;;0.63;100.00
14885;BME280;7534;50.762;7.000;2022-12-10T06:48:32;146381.09;;;0.60;100.00
14885;BME280;7534;50.762;7.000;2022-12-10T06:50:58;146343.50;;;0.46;100.00
14885;BME280;7534;50.762;7.000;2022-12-10T06:53:24;146373.28;;;0.57;100.00
14885;BME280;7534;50.762;7.000;2022-12-10T06:55:49;146331.81;;;0.41;100.00
14885;BME280;7534;50.762;7.000;2022-12-10T06:58:15;146334.41;;;0.42;100.00
14885;BME280;7534;50.762;7.000;2022-12-10T07:00:41;146309.81;;;0.32;100.00
14885;BME280;7534;50.762;7.000;2022-12-10T07:03:06;146317.56;;;0.35;100.00
14885;BME280;7534;50.762;7.000;2022-12-10T07:05:32;146321.47;;;0.37;100.00
14885;BME280;7534;50.762;7.000;2022-12-10T07:07:58;146348.69;;;0.48;100.00
14885;BME280;7534;50.762;7.000;2022-12-10T07:10:23;146333.09;;;0.42;100.00
14885;BME280;7534;50.762;7.000;2022-12-10T07:12:49;146325.34;;;0.38;100.00
14885;BME280;7534;50.762;7.000;2022-12-10T07:15:15;146335.72;;;0.43;100.00
14885;BME280;7534;50.762;7.000;2022-12-10T07:17:41;146350.00;;;0.48;100.00
14885;BME280;7534;50.762;7.000;2022-12-10T07:20:07;146377.19;;;0.59;100.00
14885;BME280;7534;50.762;7.000;2022-12-10T07:22:34;146421.28;;;0.76;100.00
14885;BME280;7534;50.762;7.000;2022-12-10T07:24:59;146423.88;;;0.77;100.00
14885;BME280;7534;50.762;7.000;2022-12-10T07:27:25;146466.69;;;0.94;100.00
14885;BME280;7534;50.762;7.000;2022-12-10T07:29:51;146462.78;;;0.92;99.87
14885;BME280;7534;50.762;7.000;2022-12-10T07:32:17;146448.53;;;0.87;99.24
14885;BME280;7534;50.762;7.000;2022-12-10T07:34:42;146460.19;;;0.91;99.51
14885;BME280;7534;50.762;7.000;2022-12-10T07:37:08;146471.91;;;0.96;99.52
14885;BME280;7534;50.762;7.000;2022-12-10T07:39:34;146483.53;;;1.00;99.24
14885;BME280;7534;50.762;7.000;2022-12-10T07:42:02;146490.03;;;1.03;99.04
14885;BME280;7534;50.762;7.000;2022-12-10T07:44:27;146522.47;;;1.15;99.00
14885;BME280;7534;50.762;7.000;2022-12-10T07:46:54;146536.75;;;1.21;98.62
14885;BME280;7534;50.762;7.000;2022-12-10T07:49:21;146549.72;;;1.26;98.43
14885;BME280;7534;50.762;7.000;2022-12-10T07:51:49;146561.38;;;1.31;98.80
14885;BME280;7534;50.762;7.000;2022-12-10T07:54:16;146584.72;;;1.40;98.41
14885;BME280;7534;50.762;7.000;2022-12-10T07:56:42;146601.59;;;1.46;98.34
14885;BME280;7534;50.762;7.000;2022-12-10T07:59:09;146617.19;;;1.52;98.26
14885;BME280;7534;50.762;7.000;2022-12-10T08:01:35;146634.06;;;1.59;97.78
14885;BME280;7534;50.762;7.000;2022-12-10T08:04:00;146645.72;;;1.64;97.86
14885;BME280;7534;50.762;7.000;2022-12-10T08:06:28;146654.84;;;1.67;97.48
14885;BME280;7534;50.762;7.000;2022-12-10T08:08:55;146684.66;;;1.79;97.70
14885;BME280;7534;50.762;7.000;2022-12-10T08:11:23;146683.41;;;1.78;97.22
14885;BME280;7534;50.762;7.000;2022-12-10T08:13:49;146702.88;;;1.86;97.54
14885;BME280;7534;50.762;7.000;2022-12-10T08:16:20;146715.84;;;1.91;97.44
14885;BME280;7534;50.762;7.000;2022-12-10T08:18:48;146713.22;;;1.90;97.53
14885;BME280;7534;50.762;7.000;2022-12-10T08:21:21;146741.81;;;2.01;97.43
14885;BME280;7534;50.762;7.000;2022-12-10T08:23:48;146765.19;;;2.10;97.37
14885;BME280;7534;50.762;7.000;2022-12-10T08:26:18;146784.69;;;2.18;96.96
14885;BME280;7534;50.762;7.000;2022-12-10T08:28:46;146802.84;;;2.25;97.21
14885;BME280;7534;50.762;7.000;2022-12-10T08:31:13;146819.72;;;2.32;97.17
14885;BME280;7534;50.762;7.000;2022-12-10T08:33:40;146845.72;;;2.42;97.17
14885;BME280;7534;50.762;7.000;2022-12-10T08:36:08;146839.19;;;2.39;96.61
14885;BME280;7534;50.762;7.000;2022-12-10T08:38:35;146848.31;;;2.43;96.56
14885;BME280;7534;50.762;7.000;2022-12-10T08:41:18;146854.78;;;2.45;96.45
14885;BME280;7534;50.762;7.000;2022-12-10T08:43:45;146871.66;;;2.52;96.44
14885;BME280;7534;50.762;7.000;2022-12-10T08:46:13;146836.59;;;2.38;96.00
14885;BME280;7534;50.762;7.000;2022-12-10T08:48:40;146754.78;;;2.06;96.22
14885;BME280;7534;50.762;7.000;2022-12-10T08:51:08;146689.88;;;1.81;96.83
14885;BME280;7534;50.762;7.000;2022-12-10T08:53:35;146737.91;;;2.00;97.04
14885;BME280;7534;50.762;7.000;2022-12-10T08:56:00;146705.44;;;1.87;96.27
14885;BME280;7534;50.762;7.000;2022-12-10T08:58:26;146704.19;;;1.86;97.13
14885;BME280;7534;50.762;7.000;2022-12-10T09:00:52;146778.16;;;2.15;97.03
14885;BME280;7534;50.762;7.000;2022-12-10T09:03:17;146836.59;;;2.38;95.69
14885;BME280;7534;50.762;7.000;2022-12-10T09:05:43;146870.41;;;2.51;95.51
14885;BME280;7534;50.762;7.000;2022-12-10T09:08:10;146876.84;;;2.54;94.98
14885;BME280;7534;50.762;7.000;2022-12-10T09:10:40;146888.59;;;2.58;95.15
14885;BME280;7534;50.762;7.000;2022-12-10T09:13:07;146947.03;;;2.81;94.86
14885;BME280;7534;50.762;7.000;2022-12-10T09:15:33;146872.97;;;2.52;93.91
14885;BME280;7534;50.762;7.000;2022-12-10T09:17:59;146914.53;;;2.68;94.15
14885;BME280;7534;50.762;7.000;2022-12-10T09:20:24;146931.47;;;2.75;93.56
14885;BME280;7534;50.762;7.000;2022-12-10T09:22:50;146956.09;;;2.85;93.04
14885;BME280;7534;50.762;7.000;2022-12-10T09:25:16;147008.13;;;3.05;92.39
14885;BME280;7534;50.762;7.000;2022-12-10T09:27:43;147017.19;;;3.08;91.52
14885;BME280;7534;50.762;7.000;2022-12-10T09:30:11;147028.91;;;3.13;91.25
14885;BME280;7534;50.762;7.000;2022-12-10T09:32:37;147013.31;;;3.07;90.60
14885;BME280;7534;50.762;7.000;2022-12-10T09:35:03;147032.81;;;3.15;90.34
14885;BME280;7534;50.762;7.000;2022-12-10T09:37:29;147031.50;;;3.14;89.51
14885;BME280;7534;50.762;7.000;2022-12-10T09:39:54;147039.28;;;3.17;89.65
14885;BME280;7534;50.762;7.000;2022-12-10T09:42:42;147087.41;;;3.36;89.00
14885;BME280;7534;50.762;7.000;2022-12-10T09:45:57;147102.97;;;3.42;88.56
14885;BME280;7534;50.762;7.000;2022-12-10T09:51:23;147169.31;;;3.68;87.08
14885;BME280;7534;50.762;7.000;2022-12-10T09:53:57;147192.72;;;3.77;86.84
14885;BME280;7534;50.762;7.000;2022-12-10T09:56:33;147225.22;;;3.90;85.94
14885;BME280;7534;50.762;7.000;2022-12-10T09:59:14;147249.94;;;3.99;84.91
14885;BME280;7534;50.762;7.000;2022-12-10T10:01:43;147257.75;;;4.02;83.51
14885;BME280;7534;50.762;7.000;2022-12-10T10:04:10;147256.47;;;4.02;83.26
14885;BME280;7534;50.762;7.000;2022-12-10T10:06:36;147290.25;;;4.15;83.01
14885;BME280;7534;50.762;7.000;2022-12-10T10:09:03;147278.59;;;4.10;82.40
14885;BME280;7534;50.762;7.000;2022-12-10T10:11:34;147343.66;;;4.36;81.74
14885;BME280;7534;50.762;7.000;2022-12-10T10:14:13;147354.03;;;4.40;80.30
14885;BME280;7534;50.762;7.000;2022-12-10T10:16:58;147369.69;;;4.46;78.14
14885;BME280;7534;50.762;7.000;2022-12-10T10:19:34;147266.84;;;4.06;73.96
14885;BME280;7534;50.762;7.000;2022-12-10T10:22:04;147252.53;;;4.00;73.45
14885;BME280;7534;50.762;7.000;2022-12-10T10:24:37;147208.31;;;3.83;71.19
14885;BME280;7534;50.762;7.000;2022-12-10T10:27:16;147151.09;;;3.61;69.47
14885;BME280;7534;50.762;7.000;2022-12-10T10:29:48;147051.00;;;3.22;70.68
14885;BME280;7534;50.762;7.000;2022-12-10T10:32:19;147108.19;;;3.44;71.85
14885;BME280;7534;50.762;7.000;2022-12-10T10:34:52;147173.22;;;3.69;72.07
14885;BME280;7534;50.762;7.000;2022-12-10T10:37:41;147210.94;;;3.84;71.18
14885;BME280;7534;50.762;7.000;2022-12-10T10:40:32;147247.34;;;3.98;70.97
14885;BME280;7534;50.762;7.000;2022-12-10T10:43:01;147268.16;;;4.06;70.72
14885;BME280;7534;50.762;7.000;2022-12-10T10:45:42;147278.59;;;4.10;70.00
14885;BME280;7534;50.762;7.000;2022-12-10T10:48:23;147264.28;;;4.05;70.03
14885;BME280;7534;50.762;7.000;2022-12-10T10:53:49;147201.84;;;3.80;68.49
14885;BME280;7534;50.762;7.000;2022-12-10T10:56:41;147112.09;;;3.45;68.45
14885;BME280;7534;50.762;7.000;2022-12-10T10:59:34;147004.19;;;3.03;68.99
14885;BME280;7534;50.762;7.000;2022-12-10T11:02:36;147101.69;;;3.41;69.81
14885;BME280;7534;50.762;7.000;2022-12-10T11:05:17;147129.00;;;3.52;69.80
14885;BME280;7534;50.762;7.000;2022-12-10T11:07:45;147108.19;;;3.44;69.86
14885;BME280;7534;50.762;7.000;2022-12-10T11:10:22;147135.50;;;3.55;70.54
14885;BME280;7534;50.762;7.000;2022-12-10T11:13:06;147121.19;;;3.49;69.86
14885;BME280;7534;50.762;7.000;2022-12-10T11:15:36;147135.50;;;3.55;70.35
14885;BME280;7534;50.762;7.000;2022-12-10T11:18:29;147177.13;;;3.71;69.22
14885;BME280;7534;50.762;7.000;2022-12-10T11:21:04;147235.66;;;3.94;69.46
14885;BME280;7534;50.762;7.000;2022-12-10T11:23:45;147195.34;;;3.78;68.35
14885;BME280;7534;50.762;7.000;2022-12-10T11:26:37;147221.34;;;3.88;68.15
14885;BME280;7534;50.762;7.000;2022-12-10T11:35:11;147393.06;;;4.55;66.95
14885;BME280;7534;50.762;7.000;2022-12-10T11:37:54;147408.72;;;4.61;66.75
14885;BME280;7534;50.762;7.000;2022-12-10T11:52:17;147364.47;;;4.44;66.87
14885;BME280;7534;50.762;7.000;2022-12-10T12:09:54;147373.53;;;4.47;66.67
14885;BME280;7534;50.762;7.000;2022-12-10T12:12:49;147413.88;;;4.63;66.32
14885;BME280;7534;50.762;7.000;2022-12-10T12:15:44;147398.28;;;4.57;66.01
14885;BME280;7534;50.762;7.000;2022-12-10T12:21:04;147497.22;;;4.95;64.01
14885;BME280;7534;50.762;7.000;2022-12-10T12:29:13;147456.84;;;4.80;63.68
14885;BME280;7534;50.762;7.000;2022-12-10T12:31:53;147434.72;;;4.71;64.46
14885;BME280;7534;50.762;7.000;2022-12-10T12:37:11;147447.75;;;4.76;64.47
14885;BME280;7534;50.762;7.000;2022-12-10T12:40:11;147429.53;;;4.69;63.39
14885;BME280;7534;50.762;7.000;2022-12-10T12:42:49;147411.34;;;4.62;64.59
14885;BME280;7534;50.762;7.000;2022-12-10T12:45:43;147385.28;;;4.52;64.11
14885;BME280;7534;50.762;7.000;2022-12-10T12:51:17;147399.59;;;4.57;64.30
14885;BME280;7534;50.762;7.000;2022-12-10T12:53:45;147356.63;;;4.41;63.84
14885;BME280;7534;50.762;7.000;2022-12-10T12:56:59;147411.34;;;4.62;64.62
14885;BME280;7534;50.762;7.000;2022-12-10T12:59:47;147425.63;;;4.68;64.03
14885;BME280;7534;50.762;7.000;2022-12-10T13:02:47;147527.19;;;5.07;62.94
14885;BME280;7534;50.762;7.000;2022-12-10T13:05:31;147568.84;;;5.23;62.11
14885;BME280;7534;50.762;7.000;2022-12-10T13:22:04;147611.84;;;5.40;61.57
14885;BME280;7534;50.762;7.000;2022-12-10T13:29:56;147514.19;;;5.02;62.29
14885;BME280;7534;50.762;7.000;2022-12-10T13:38:04;147455.53;;;4.79;63.27
14885;BME280;7534;50.762;7.000;2022-12-10T13:49:04;147341.03;;;4.35;65.23
14885;BME280;7534;50.762;7.000;2022-12-10T13:51:52;147326.72;;;4.29;66.43
14885;BME280;7534;50.762;7.000;2022-12-10T13:54:40;147328.03;;;4.30;65.85
14885;BME280;7534;50.762;7.000;2022-12-10T14:00:35;147382.69;;;4.51;65.60
14885;BME280;7534;50.762;7.000;2022-12-10T14:04:21;147364.47;;;4.44;65.76
14885;BME280;7534;50.762;7.000;2022-12-10T14:06:22;147355.34;;;4.40;66.08
14885;BME280;7534;50.762;7.000;2022-12-10T14:09:19;147376.16;;;4.48;66.20
14885;BME280;7534;50.762;7.000;2022-12-10T14:12:16;147394.38;;;4.55;66.01
14885;BME280;7534;50.762;7.000;2022-12-10T14:15:17;147393.06;;;4.55;65.19
14885;BME280;7534;50.762;7.000;2022-12-10T14:17:45;147334.50;;;4.32;65.53
14885;BME280;7534;50.762;7.000;2022-12-10T14:20:21;147161.53;;;3.65;66.62
14885;BME280;7534;50.762;7.000;2022-12-10T14:22:51;147104.28;;;3.42;68.14
14885;BME280;7534;50.762;7.000;2022-12-10T14:25:22;147162.78;;;3.65;68.28
14885;BME280;7534;50.762;7.000;2022-12-10T14:27:51;147190.13;;;3.76;67.98
14885;BME280;7534;50.762;7.000;2022-12-10T14:30:25;147186.22;;;3.74;67.97
14885;BME280;7534;50.762;7.000;2022-12-10T14:32:58;147191.41;;;3.76;67.65
14885;BME280;7534;50.762;7.000;2022-12-10T14:35:27;147217.44;;;3.87;67.88
14885;BME280;7534;50.762;7.000;2022-12-10T14:37:58;147190.13;;;3.76;68.83
14885;BME280;7534;50.762;7.000;2022-12-10T14:40:39;147140.72;;;3.57;68.84
14885;BME280;7534;50.762;7.000;2022-12-10T14:43:16;147135.50;;;3.55;69.44
14885;BME280;7534;50.762;7.000;2022-12-10T14:45:57;147139.44;;;3.56;69.20
14885;BME280;7534;50.762;7.000;2022-12-10T14:48:25;147158.94;;;3.64;69.25
14885;BME280;7534;50.762;7.000;2022-12-10T14:50:51;147158.94;;;3.64;69.79
14885;BME280;7534;50.762;7.000;2022-12-10T14:53:23;147182.34;;;3.73;69.52
14885;BME280;7534;50.762;7.000;2022-12-10T14:55:58;147187.50;;;3.75;69.87
14885;BME280;7534;50.762;7.000;2022-12-10T14:59:07;147191.41;;;3.76;70.04
14885;BME280;7534;50.762;7.000;2022-12-10T15:01:30;147175.81;;;3.70;69.70
14885;BME280;7534;50.762;7.000;2022-12-10T15:04:00;147105.59;;;3.43;70.74